sensor_id;sensor_type;location;lat;lon;timestamp;P1;durP1;ratioP1;P2;durP2;ratioP2
63114;SDS011;49208;50.874;6.466;2023-06-14T06:02:05;11.65;;;6.35;;
63114;SDS011;49208;50.874;6.466;2023-06-14T06:04:31;9.07;;;5.13;;
63114;SDS011;49208;50.874;6.466;2023-06-14T06:06:56;14.87;;;6.17;;
63114;SDS011;49208;50.874;6.466;2023-06-14T06:09:21;15.30;;;6.30;;
63114;SDS011;49208;50.874;6.466;2023-06-14T06:11:47;23.30;;;7.27;;
63114;SDS011;49208;50.874;6.466;2023-06-14T06:14:12;13.73;;;6.00;;
63114;SDS011;49208;50.874;6.466;2023-06-14T06:16:37;14.27;;;5.97;;
63114;SDS011;49208;50.874;6.466;2023-06-14T06:19:03;10.30;;;5.37;;
63114;SDS011;49208;50.874;6.466;2023-06-14T06:21:28;16.83;;;5.50;;
63114;SDS011;49208;50.874;6.466;2023-06-14T06:23:53;13.40;;;5.47;;
63114;SDS011;49208;50.874;6.466;2023-06-14T06:26:21;13.35;;;6.10;;
63114;SDS011;49208;50.874;6.466;2023-06-14T06:28:47;13.25;;;5.55;;
63114;SDS011;49208;50.874;6.466;2023-06-14T06:31:12;14.40;;;5.47;;
63114;SDS011;49208;50.874;6.466;2023-06-14T06:33:38;13.03;;;5.97;;
63114;SDS011;49208;50.874;6.466;2023-06-14T06:38:30;16.63;;;5.53;;
63114;SDS011;49208;50.874;6.466;2023-06-14T06:40:55;16.70;;;5.80;;
63114;SDS011;49208;50.874;6.466;2023-06-14T06:43:21;13.52;;;5.45;;
63114;SDS011;49208;50.874;6.466;2023-06-14T06:45:47;12.70;;;5.70;;
63114;SDS011;49208;50.874;6.466;2023-06-14T06:48:13;13.13;;;5.30;;
63114;SDS011;49208;50.874;6.466;2023-06-14T06:50:38;17.03;;;5.53;;
63114;SDS011;49208;50.874;6.466;2023-06-14T06:53:04;17.93;;;6.23;;
63114;SDS011;49208;50.874;6.466;2023-06-14T06:55:30;15.70;;;5.38;;
63114;SDS011;49208;50.874;6.466;2023-06-14T06:57:55;11.67;;;4.67;;
63114;SDS011;49208;50.874;6.466;2023-06-14T07:00:21;10.73;;;4.23;;
63114;SDS011;49208;50.874;6.466;2023-06-14T07:02:46;12.13;;;4.83;;
63114;SDS011;49208;50.874;6.466;2023-06-14T07:05:12;13.95;;;5.05;;
63114;SDS011;49208;50.874;6.466;2023-06-14T07:07:38;8.30;;;4.13;;
63114;SDS011;49208;50.874;6.466;2023-06-14T07:10:04;12.83;;;4.30;;
63114;SDS011;49208;50.874;6.466;2023-06-14T07:15:01;7.72;;;4.30;;
63114;SDS011;49208;50.874;6.466;2023-06-14T07:17:26;7.93;;;4.25;;
63114;SDS011;49208;50.874;6.466;2023-06-14T07:19:52;4.90;;;3.50;;
63114;SDS011;49208;50.874;6.466;2023-06-14T07:22:18;8.45;;;4.10;;
63114;SDS011;49208;50.874;6.466;2023-06-14T07:24:43;10.00;;;4.03;;
63114;SDS011;49208;50.874;6.466;2023-06-14T07:27:09;6.20;;;4.00;;
63114;SDS011;49208;50.874;6.466;2023-06-14T07:29:35;7.07;;;4.15;;
63114;SDS011;49208;50.874;6.466;2023-06-14T07:32:01;8.67;;;4.03;;
63114;SDS011;49208;50.874;6.466;2023-06-14T07:34:26;10.10;;;4.00;;
63114;SDS011;49208;50.874;6.466;2023-06-14T07:36:52;8.27;;;4.90;;
63114;SDS011;49208;50.874;6.466;2023-06-14T07:39:19;6.53;;;4.10;;
63114;SDS011;49208;50.874;6.466;2023-06-14T07:41:44;7.60;;;3.83;;
63114;SDS011;49208;50.874;6.466;2023-06-14T07:44:10;6.47;;;3.60;;
63114;SDS011;49208;50.874;6.466;2023-06-14T07:46:35;11.27;;;3.80;;
63114;SDS011;49208;50.874;6.466;2023-06-14T07:49:00;8.90;;;3.90;;
63114;SDS011;49208;50.874;6.466;2023-06-14T07:51:26;9.53;;;4.23;;
63114;SDS011;49208;50.874;6.466;2023-06-14T07:53:51;13.23;;;4.27;;
63114;SDS011;49208;50.874;6.466;2023-06-14T07:56:17;8.00;;;3.70;;
63114;SDS011;49208;50.874;6.466;2023-06-14T07:58:42;6.60;;;3.53;;
63114;SDS011;49208;50.874;6.466;2023-06-14T08:01:08;8.27;;;3.93;;
63114;SDS011;49208;50.874;6.466;2023-06-14T08:03:34;9.52;;;3.58;;
63114;SDS011;49208;50.874;6.466;2023-06-14T08:05:59;7.53;;;3.50;;
63114;SDS011;49208;50.874;6.466;2023-06-14T08:08:26;9.02;;;3.70;;
63114;SDS011;49208;50.874;6.466;2023-06-14T08:10:51;6.67;;;3.73;;
63114;SDS011;49208;50.874;6.466;2023-06-14T08:13:17;5.53;;;3.50;;
63114;SDS011;49208;50.874;6.466;2023-06-14T08:15:42;6.13;;;3.33;;
63114;SDS011;49208;50.874;6.466;2023-06-14T08:18:07;7.33;;;3.23;;
63114;SDS011;49208;50.874;6.466;2023-06-14T08:20:33;8.10;;;3.30;;
63114;SDS011;49208;50.874;6.466;2023-06-14T08:22:59;7.65;;;3.10;;
63114;SDS011;49208;50.874;6.466;2023-06-14T08:25:25;6.63;;;3.10;;
63114;SDS011;49208;50.874;6.466;2023-06-14T08:27:51;6.27;;;3.33;;
63114;SDS011;49208;50.874;6.466;2023-06-14T08:30:16;6.47;;;2.73;;
63114;SDS011;49208;50.874;6.466;2023-06-14T08:32:42;8.17;;;3.53;;
63114;SDS011;49208;50.874;6.466;2023-06-14T08:35:08;7.93;;;3.47;;
63114;SDS011;49208;50.874;6.466;2023-06-14T08:37:37;6.87;;;3.43;;
63114;SDS011;49208;50.874;6.466;2023-06-14T08:40:03;5.38;;;2.88;;
63114;SDS011;49208;50.874;6.466;2023-06-14T08:42:31;7.03;;;3.38;;
63114;SDS011;49208;50.874;6.466;2023-06-14T08:44:58;6.03;;;3.30;;
63114;SDS011;49208;50.874;6.466;2023-06-14T08:47:25;5.80;;;3.17;;
63114;SDS011;49208;50.874;6.466;2023-06-14T08:49:51;6.07;;;3.15;;
63114;SDS011;49208;50.874;6.466;2023-06-14T08:52:22;6.10;;;3.03;;
63114;SDS011;49208;50.874;6.466;2023-06-14T08:54:48;5.35;;;3.50;;
63114;SDS011;49208;50.874;6.466;2023-06-14T08:57:14;8.43;;;3.17;;
63114;SDS011;49208;50.874;6.466;2023-06-14T08:59:44;7.25;;;3.65;;
63114;SDS011;49208;50.874;6.466;2023-06-14T09:02:14;9.63;;;3.30;;
63114;SDS011;49208;50.874;6.466;2023-06-14T09:04:42;8.48;;;2.88;;
63114;SDS011;49208;50.874;6.466;2023-06-14T09:07:09;8.73;;;3.13;;
63114;SDS011;49208;50.874;6.466;2023-06-14T09:09:38;6.40;;;3.00;;
63114;SDS011;49208;50.874;6.466;2023-06-14T09:12:05;5.72;;;2.85;;
63114;SDS011;49208;50.874;6.466;2023-06-14T09:14:33;7.03;;;2.97;;
63114;SDS011;49208;50.874;6.466;2023-06-14T09:17:03;9.38;;;2.85;;
63114;SDS011;49208;50.874;6.466;2023-06-14T09:19:29;8.90;;;3.37;;
63114;SDS011;49208;50.874;6.466;2023-06-14T09:21:54;6.53;;;2.80;;
63114;SDS011;49208;50.874;6.466;2023-06-14T09:24:20;6.28;;;2.97;;
63114;SDS011;49208;50.874;6.466;2023-06-14T09:26:50;10.73;;;2.97;;
63114;SDS011;49208;50.874;6.466;2023-06-14T09:29:16;6.88;;;2.88;;
63114;SDS011;49208;50.874;6.466;2023-06-14T09:31:42;5.97;;;2.78;;
63114;SDS011;49208;50.874;6.466;2023-06-14T09:34:08;4.13;;;2.73;;
63114;SDS011;49208;50.874;6.466;2023-06-14T09:36:34;6.63;;;2.75;;
63114;SDS011;49208;50.874;6.466;2023-06-14T09:39:00;6.10;;;2.73;;
63114;SDS011;49208;50.874;6.466;2023-06-14T09:41:40;4.60;;;2.28;;
63114;SDS011;49208;50.874;6.466;2023-06-14T09:44:09;4.60;;;2.30;;
63114;SDS011;49208;50.874;6.466;2023-06-14T09:46:36;5.78;;;2.28;;
63114;SDS011;49208;50.874;6.466;2023-06-14T09:49:03;4.57;;;2.20;;
63114;SDS011;49208;50.874;6.466;2023-06-14T09:51:30;4.88;;;2.10;;
63114;SDS011;49208;50.874;6.466;2023-06-14T09:53:58;5.40;;;1.77;;
63114;SDS011;49208;50.874;6.466;2023-06-14T09:56:29;4.43;;;1.52;;
63114;SDS011;49208;50.874;6.466;2023-06-14T09:58:57;6.10;;;2.17;;
63114;SDS011;49208;50.874;6.466;2023-06-14T10:01:24;3.35;;;1.60;;
63114;SDS011;49208;50.874;6.466;2023-06-14T10:03:54;7.43;;;2.33;;
63114;SDS011;49208;50.874;6.466;2023-06-14T10:06:25;6.95;;;1.90;;
63114;SDS011;49208;50.874;6.466;2023-06-14T10:08:56;9.80;;;2.22;;
63114;SDS011;49208;50.874;6.466;2023-06-14T10:11:25;5.63;;;2.13;;
63114;SDS011;49208;50.874;6.466;2023-06-14T10:16:19;4.50;;;2.13;;
63114;SDS011;49208;50.874;6.466;2023-06-14T10:24:33;5.78;;;2.03;;
63114;SDS011;49208;50.874;6.466;2023-06-14T10:27:05;4.43;;;2.30;;
63114;SDS011;49208;50.874;6.466;2023-06-14T10:29:35;9.30;;;2.28;;
63114;SDS011;49208;50.874;6.466;2023-06-14T10:32:24;4.35;;;2.00;;
63114;SDS011;49208;50.874;6.466;2023-06-14T10:35:06;6.88;;;2.50;;
63114;SDS011;49208;50.874;6.466;2023-06-14T10:37:32;5.05;;;2.00;;
63114;SDS011;49208;50.874;6.466;2023-06-14T10:39:57;4.83;;;1.90;;
63114;SDS011;49208;50.874;6.466;2023-06-14T10:42:27;4.27;;;2.30;;
63114;SDS011;49208;50.874;6.466;2023-06-14T10:44:57;3.97;;;2.00;;
63114;SDS011;49208;50.874;6.466;2023-06-14T10:47:32;4.18;;;2.00;;
63114;SDS011;49208;50.874;6.466;2023-06-14T10:50:09;6.45;;;2.30;;
63114;SDS011;49208;50.874;6.466;2023-06-14T10:52:43;5.68;;;2.33;;
63114;SDS011;49208;50.874;6.466;2023-06-14T10:55:12;5.55;;;2.08;;
63114;SDS011;49208;50.874;6.466;2023-06-14T10:57:43;7.75;;;2.10;;
63114;SDS011;49208;50.874;6.466;2023-06-14T11:00:17;4.22;;;2.20;;
63114;SDS011;49208;50.874;6.466;2023-06-14T11:10:54;4.60;;;2.28;;
63114;SDS011;49208;50.874;6.466;2023-06-14T11:13:24;7.07;;;2.35;;
63114;SDS011;49208;50.874;6.466;2023-06-14T11:15:50;5.40;;;2.40;;
63114;SDS011;49208;50.874;6.466;2023-06-14T11:18:18;8.35;;;2.50;;
63114;SDS011;49208;50.874;6.466;2023-06-14T11:20:45;4.47;;;2.37;;
63114;SDS011;49208;50.874;6.466;2023-06-14T11:23:11;4.45;;;2.03;;
63114;SDS011;49208;50.874;6.466;2023-06-14T11:25:37;7.40;;;2.70;;
63114;SDS011;49208;50.874;6.466;2023-06-14T11:28:02;5.20;;;2.33;;
63114;SDS011;49208;50.874;6.466;2023-06-14T11:30:28;9.93;;;2.80;;
63114;SDS011;49208;50.874;6.466;2023-06-14T11:32:54;7.83;;;2.10;;
63114;SDS011;49208;50.874;6.466;2023-06-14T11:35:23;5.18;;;2.10;;
63114;SDS011;49208;50.874;6.466;2023-06-14T11:37:53;6.95;;;2.30;;
63114;SDS011;49208;50.874;6.466;2023-06-14T11:40:20;6.40;;;2.28;;
63114;SDS011;49208;50.874;6.466;2023-06-14T11:42:49;9.38;;;2.63;;
63114;SDS011;49208;50.874;6.466;2023-06-14T11:45:14;5.67;;;2.30;;
63114;SDS011;49208;50.874;6.466;2023-06-14T11:47:40;8.73;;;2.43;;
63114;SDS011;49208;50.874;6.466;2023-06-14T11:50:06;5.27;;;1.97;;
63114;SDS011;49208;50.874;6.466;2023-06-14T11:52:33;5.90;;;2.13;;
63114;SDS011;49208;50.874;6.466;2023-06-14T11:54:59;6.82;;;2.13;;
63114;SDS011;49208;50.874;6.466;2023-06-14T11:57:25;4.13;;;1.93;;
63114;SDS011;49208;50.874;6.466;2023-06-14T11:59:50;5.03;;;2.13;;
63114;SDS011;49208;50.874;6.466;2023-06-14T12:02:17;4.03;;;1.70;;
63114;SDS011;49208;50.874;6.466;2023-06-14T12:04:43;4.03;;;2.20;;
63114;SDS011;49208;50.874;6.466;2023-06-14T12:07:12;7.13;;;2.13;;
63114;SDS011;49208;50.874;6.466;2023-06-14T12:09:42;7.65;;;2.25;;
63114;SDS011;49208;50.874;6.466;2023-06-14T12:12:28;6.78;;;2.00;;
63114;SDS011;49208;50.874;6.466;2023-06-14T12:14:56;4.60;;;2.47;;
63114;SDS011;49208;50.874;6.466;2023-06-14T12:17:22;3.57;;;2.03;;
63114;SDS011;49208;50.874;6.466;2023-06-14T12:19:48;4.03;;;2.23;;
63114;SDS011;49208;50.874;6.466;2023-06-14T12:22:15;4.78;;;2.28;;
63114;SDS011;49208;50.874;6.466;2023-06-14T12:24:44;3.95;;;2.03;;
63114;SDS011;49208;50.874;6.466;2023-06-14T12:27:11;4.00;;;1.95;;
63114;SDS011;49208;50.874;6.466;2023-06-14T12:29:40;5.80;;;2.35;;
63114;SDS011;49208;50.874;6.466;2023-06-14T12:32:09;5.43;;;2.47;;
63114;SDS011;49208;50.874;6.466;2023-06-14T12:34:35;5.60;;;2.10;;
63114;SDS011;49208;50.874;6.466;2023-06-14T12:37:00;5.93;;;2.90;;
63114;SDS011;49208;50.874;6.466;2023-06-14T12:39:26;3.80;;;2.43;;
63114;SDS011;49208;50.874;6.466;2023-06-14T12:41:51;4.57;;;2.40;;
63114;SDS011;49208;50.874;6.466;2023-06-14T12:44:16;5.97;;;2.70;;
63114;SDS011;49208;50.874;6.466;2023-06-14T12:46:42;4.87;;;2.30;;
63114;SDS011;49208;50.874;6.466;2023-06-14T12:49:09;10.18;;;2.88;;
63114;SDS011;49208;50.874;6.466;2023-06-14T12:51:36;5.30;;;2.45;;
63114;SDS011;49208;50.874;6.466;2023-06-14T12:54:02;7.47;;;2.88;;
63114;SDS011;49208;50.874;6.466;2023-06-14T12:56:28;5.57;;;2.60;;
63114;SDS011;49208;50.874;6.466;2023-06-14T12:58:53;6.10;;;2.70;;
63114;SDS011;49208;50.874;6.466;2023-06-14T13:01:19;7.73;;;2.73;;
63114;SDS011;49208;50.874;6.466;2023-06-14T13:03:45;6.90;;;2.87;;
63114;SDS011;49208;50.874;6.466;2023-06-14T13:06:11;5.88;;;2.60;;
63114;SDS011;49208;50.874;6.466;2023-06-14T13:08:37;6.43;;;2.13;;
63114;SDS011;49208;50.874;6.466;2023-06-14T13:11:02;8.17;;;2.70;;
63114;SDS011;49208;50.874;6.466;2023-06-14T13:13:27;4.90;;;2.67;;
63114;SDS011;49208;50.874;6.466;2023-06-14T13:15:53;10.73;;;2.60;;
63114;SDS011;49208;50.874;6.466;2023-06-14T13:18:18;3.40;;;2.13;;
63114;SDS011;49208;50.874;6.466;2023-06-14T13:20:45;4.27;;;2.20;;
63114;SDS011;49208;50.874;6.466;2023-06-14T13:23:11;6.50;;;2.80;;
63114;SDS011;49208;50.874;6.466;2023-06-14T13:25:36;4.67;;;2.13;;
63114;SDS011;49208;50.874;6.466;2023-06-14T13:28:05;4.65;;;2.33;;
63114;SDS011;49208;50.874;6.466;2023-06-14T13:30:31;5.43;;;2.28;;
63114;SDS011;49208;50.874;6.466;2023-06-14T13:35:23;6.47;;;2.88;;
63114;SDS011;49208;50.874;6.466;2023-06-14T13:37:49;5.00;;;2.20;;
63114;SDS011;49208;50.874;6.466;2023-06-14T13:40:15;4.13;;;2.23;;
63114;SDS011;49208;50.874;6.466;2023-06-14T13:42:40;5.50;;;2.43;;
63114;SDS011;49208;50.874;6.466;2023-06-14T13:45:06;3.93;;;2.40;;
63114;SDS011;49208;50.874;6.466;2023-06-14T13:49:58;4.90;;;2.27;;
63114;SDS011;49208;50.874;6.466;2023-06-14T13:52:23;3.70;;;2.20;;
63114;SDS011;49208;50.874;6.466;2023-06-14T13:54:49;3.80;;;2.23;;
63114;SDS011;49208;50.874;6.466;2023-06-14T13:57:15;4.07;;;2.33;;
63114;SDS011;49208;50.874;6.466;2023-06-14T13:59:41;7.72;;;2.58;;
63114;SDS011;49208;50.874;6.466;2023-06-14T14:02:08;3.72;;;2.33;;
63114;SDS011;49208;50.874;6.466;2023-06-14T14:04:34;5.27;;;2.63;;
63114;SDS011;49208;50.874;6.466;2023-06-14T14:07:02;4.55;;;2.17;;
63114;SDS011;49208;50.874;6.466;2023-06-14T14:11:54;4.47;;;2.30;;
63114;SDS011;49208;50.874;6.466;2023-06-14T14:14:20;4.82;;;2.30;;
63114;SDS011;49208;50.874;6.466;2023-06-14T14:16:46;4.00;;;2.40;;
63114;SDS011;49208;50.874;6.466;2023-06-14T14:19:11;4.63;;;2.30;;
63114;SDS011;49208;50.874;6.466;2023-06-14T14:21:36;5.17;;;2.23;;
63114;SDS011;49208;50.874;6.466;2023-06-14T14:24:02;5.07;;;2.70;;
63114;SDS011;49208;50.874;6.466;2023-06-14T14:26:28;5.23;;;2.10;;
63114;SDS011;49208;50.874;6.466;2023-06-14T14:28:53;5.53;;;2.20;;
63114;SDS011;49208;50.874;6.466;2023-06-14T14:31:19;6.47;;;2.50;;
63114;SDS011;49208;50.874;6.466;2023-06-14T14:33:44;4.93;;;2.20;;
63114;SDS011;49208;50.874;6.466;2023-06-14T14:36:10;5.83;;;2.50;;
63114;SDS011;49208;50.874;6.466;2023-06-14T14:38:35;4.07;;;1.90;;
63114;SDS011;49208;50.874;6.466;2023-06-14T14:41:01;4.20;;;2.20;;
63114;SDS011;49208;50.874;6.466;2023-06-14T14:43:26;4.07;;;1.77;;
63114;SDS011;49208;50.874;6.466;2023-06-14T14:45:55;3.15;;;1.80;;
63114;SDS011;49208;50.874;6.466;2023-06-14T14:48:21;5.53;;;2.00;;
63114;SDS011;49208;50.874;6.466;2023-06-14T14:50:46;2.80;;;1.60;;
63114;SDS011;49208;50.874;6.466;2023-06-14T14:53:12;4.53;;;1.90;;
63114;SDS011;49208;50.874;6.466;2023-06-14T14:55:38;4.03;;;1.85;;
63114;SDS011;49208;50.874;6.466;2023-06-14T15:00:31;4.40;;;1.80;;
63114;SDS011;49208;50.874;6.466;2023-06-14T15:02:57;3.17;;;1.70;;
63114;SDS011;49208;50.874;6.466;2023-06-14T15:05:22;5.07;;;2.23;;
63114;SDS011;49208;50.874;6.466;2023-06-14T15:07:47;10.43;;;2.63;;
63114;SDS011;49208;50.874;6.466;2023-06-14T15:10:13;3.70;;;2.07;;
63114;SDS011;49208;50.874;6.466;2023-06-14T15:12:39;5.80;;;2.00;;
63114;SDS011;49208;50.874;6.466;2023-06-14T15:15:04;5.47;;;2.07;;
63114;SDS011;49208;50.874;6.466;2023-06-14T15:17:30;3.53;;;1.90;;
63114;SDS011;49208;50.874;6.466;2023-06-14T15:19:55;4.57;;;1.80;;
63114;SDS011;49208;50.874;6.466;2023-06-14T15:22:21;5.10;;;1.90;;
63114;SDS011;49208;50.874;6.466;2023-06-14T15:24:46;5.43;;;2.10;;
63114;SDS011;49208;50.874;6.466;2023-06-14T15:27:12;5.73;;;1.80;;
63114;SDS011;49208;50.874;6.466;2023-06-14T15:29:38;4.13;;;1.97;;
63114;SDS011;49208;50.874;6.466;2023-06-14T15:32:06;4.55;;;2.00;;
63114;SDS011;49208;50.874;6.466;2023-06-14T15:34:32;3.63;;;2.20;;
63114;SDS011;49208;50.874;6.466;2023-06-14T15:36:58;4.90;;;2.20;;
63114;SDS011;49208;50.874;6.466;2023-06-14T15:39:23;3.13;;;2.07;;
63114;SDS011;49208;50.874;6.466;2023-06-14T15:41:49;4.10;;;2.00;;
63114;SDS011;49208;50.874;6.466;2023-06-14T15:44:16;3.47;;;2.10;;
63114;SDS011;49208;50.874;6.466;2023-06-14T15:46:42;5.17;;;2.17;;
63114;SDS011;49208;50.874;6.466;2023-06-14T15:49:10;5.50;;;2.63;;
63114;SDS011;49208;50.874;6.466;2023-06-14T15:51:39;4.25;;;2.25;;
63114;SDS011;49208;50.874;6.466;2023-06-14T15:54:05;4.45;;;2.40;;
63114;SDS011;49208;50.874;6.466;2023-06-14T15:56:30;5.90;;;2.37;;
63114;SDS011;49208;50.874;6.466;2023-06-14T15:58:56;4.10;;;2.70;;
63114;SDS011;49208;50.874;6.466;2023-06-14T16:01:22;4.68;;;2.67;;
63114;SDS011;49208;50.874;6.466;2023-06-14T16:03:48;3.97;;;2.20;;
63114;SDS011;49208;50.874;6.466;2023-06-14T16:06:14;4.77;;;2.47;;
63114;SDS011;49208;50.874;6.466;2023-06-14T16:08:39;7.10;;;2.60;;
63114;SDS011;49208;50.874;6.466;2023-06-14T16:11:05;5.33;;;2.27;;
63114;SDS011;49208;50.874;6.466;2023-06-14T16:13:30;5.50;;;2.30;;
63114;SDS011;49208;50.874;6.466;2023-06-14T16:15:56;4.10;;;2.27;;
63114;SDS011;49208;50.874;6.466;2023-06-14T16:18:21;5.67;;;2.80;;
63114;SDS011;49208;50.874;6.466;2023-06-14T16:20:46;4.13;;;2.33;;
63114;SDS011;49208;50.874;6.466;2023-06-14T16:23:12;5.22;;;2.20;;
63114;SDS011;49208;50.874;6.466;2023-06-14T16:25:38;6.57;;;2.30;;
63114;SDS011;49208;50.874;6.466;2023-06-14T16:28:03;6.38;;;2.40;;
63114;SDS011;49208;50.874;6.466;2023-06-14T16:30:30;5.50;;;2.50;;
63114;SDS011;49208;50.874;6.466;2023-06-14T16:32:55;4.70;;;2.50;;
63114;SDS011;49208;50.874;6.466;2023-06-14T16:35:20;4.10;;;2.60;;
63114;SDS011;49208;50.874;6.466;2023-06-14T16:37:46;7.13;;;2.47;;
63114;SDS011;49208;50.874;6.466;2023-06-14T16:40:11;5.83;;;2.47;;
63114;SDS011;49208;50.874;6.466;2023-06-14T16:42:37;5.57;;;2.22;;
63114;SDS011;49208;50.874;6.466;2023-06-14T16:45:02;3.53;;;2.40;;
63114;SDS011;49208;50.874;6.466;2023-06-14T16:47:27;4.37;;;2.50;;
63114;SDS011;49208;50.874;6.466;2023-06-14T16:49:53;3.37;;;2.20;;
63114;SDS011;49208;50.874;6.466;2023-06-14T16:52:18;4.90;;;2.50;;
63114;SDS011;49208;50.874;6.466;2023-06-14T16:54:44;7.83;;;2.80;;
63114;SDS011;49208;50.874;6.466;2023-06-14T16:57:09;4.75;;;2.40;;
63114;SDS011;49208;50.874;6.466;2023-06-14T16:59:36;6.47;;;2.58;;
63114;SDS011;49208;50.874;6.466;2023-06-14T17:02:02;6.22;;;2.42;;
63114;SDS011;49208;50.874;6.466;2023-06-14T17:04:30;5.57;;;2.30;;
63114;SDS011;49208;50.874;6.466;2023-06-14T17:06:56;3.40;;;2.10;;
63114;SDS011;49208;50.874;6.466;2023-06-14T17:09:23;4.00;;;2.40;;
63114;SDS011;49208;50.874;6.466;2023-06-14T17:11:48;11.80;;;3.00;;
63114;SDS011;49208;50.874;6.466;2023-06-14T17:14:13;7.35;;;2.28;;
63114;SDS011;49208;50.874;6.466;2023-06-14T17:16:39;4.13;;;2.60;;
63114;SDS011;49208;50.874;6.466;2023-06-14T17:19:05;4.97;;;2.40;;
63114;SDS011;49208;50.874;6.466;2023-06-14T17:21:33;6.70;;;2.75;;
63114;SDS011;49208;50.874;6.466;2023-06-14T17:23:59;4.35;;;2.72;;
63114;SDS011;49208;50.874;6.466;2023-06-14T17:26:25;4.18;;;2.70;;
63114;SDS011;49208;50.874;6.466;2023-06-14T17:28:51;4.20;;;2.20;;
63114;SDS011;49208;50.874;6.466;2023-06-14T17:31:17;4.00;;;2.00;;
63114;SDS011;49208;50.874;6.466;2023-06-14T17:33:42;4.13;;;2.50;;
63114;SDS011;49208;50.874;6.466;2023-06-14T17:36:08;6.50;;;2.75;;
63114;SDS011;49208;50.874;6.466;2023-06-14T17:38:34;3.78;;;2.25;;
63114;SDS011;49208;50.874;6.466;2023-06-14T17:43:29;10.18;;;2.90;;
63114;SDS011;49208;50.874;6.466;2023-06-14T17:45:54;3.40;;;2.40;;
63114;SDS011;49208;50.874;6.466;2023-06-14T17:48:19;5.25;;;2.47;;
63114;SDS011;49208;50.874;6.466;2023-06-14T17:50:45;4.22;;;2.70;;
63114;SDS011;49208;50.874;6.466;2023-06-14T17:53:10;4.18;;;2.40;;
63114;SDS011;49208;50.874;6.466;2023-06-14T17:55:36;5.40;;;2.40;;
63114;SDS011;49208;50.874;6.466;2023-06-14T17:58:04;5.15;;;2.13;;
63114;SDS011;49208;50.874;6.466;2023-06-14T18:00:29;7.38;;;2.40;;
63114;SDS011;49208;50.874;6.466;2023-06-14T18:02:55;6.75;;;2.72;;
63114;SDS011;49208;50.874;6.466;2023-06-14T18:05:23;5.15;;;2.30;;
63114;SDS011;49208;50.874;6.466;2023-06-14T18:07:50;5.50;;;2.47;;
63114;SDS011;49208;50.874;6.466;2023-06-14T18:10:15;4.80;;;2.42;;
63114;SDS011;49208;50.874;6.466;2023-06-14T18:12:42;5.45;;;2.53;;
63114;SDS011;49208;50.874;6.466;2023-06-14T18:15:07;4.50;;;2.90;;
63114;SDS011;49208;50.874;6.466;2023-06-14T18:17:33;3.72;;;2.33;;
63114;SDS011;49208;50.874;6.466;2023-06-14T18:19:58;6.50;;;2.60;;
63114;SDS011;49208;50.874;6.466;2023-06-14T18:22:24;4.30;;;2.50;;
63114;SDS011;49208;50.874;6.466;2023-06-14T18:24:49;5.28;;;2.60;;
63114;SDS011;49208;50.874;6.466;2023-06-14T18:27:15;6.18;;;2.60;;
63114;SDS011;49208;50.874;6.466;2023-06-14T18:29:40;5.47;;;2.58;;
63114;SDS011;49208;50.874;6.466;2023-06-14T18:32:05;7.13;;;2.65;;
63114;SDS011;49208;50.874;6.466;2023-06-14T18:34:31;4.93;;;2.58;;
63114;SDS011;49208;50.874;6.466;2023-06-14T18:36:56;7.97;;;3.00;;
63114;SDS011;49208;50.874;6.466;2023-06-14T18:39:22;6.13;;;3.28;;
63114;SDS011;49208;50.874;6.466;2023-06-14T18:41:48;4.50;;;2.58;;
63114;SDS011;49208;50.874;6.466;2023-06-14T18:44:13;7.45;;;2.95;;
63114;SDS011;49208;50.874;6.466;2023-06-14T18:46:38;4.38;;;2.92;;
63114;SDS011;49208;50.874;6.466;2023-06-14T18:49:04;4.72;;;2.47;;
63114;SDS011;49208;50.874;6.466;2023-06-14T18:51:29;4.43;;;2.67;;
63114;SDS011;49208;50.874;6.466;2023-06-14T18:53:55;5.03;;;2.63;;
63114;SDS011;49208;50.874;6.466;2023-06-14T18:56:20;4.75;;;2.90;;
63114;SDS011;49208;50.874;6.466;2023-06-14T18:58:46;6.70;;;3.30;;
63114;SDS011;49208;50.874;6.466;2023-06-14T19:01:12;5.97;;;3.03;;
63114;SDS011;49208;50.874;6.466;2023-06-14T19:03:38;5.10;;;3.05;;
63114;SDS011;49208;50.874;6.466;2023-06-14T19:06:03;4.43;;;2.80;;
63114;SDS011;49208;50.874;6.466;2023-06-14T19:08:29;5.40;;;2.80;;
63114;SDS011;49208;50.874;6.466;2023-06-14T19:10:54;5.35;;;2.90;;
63114;SDS011;49208;50.874;6.466;2023-06-14T19:13:20;7.03;;;3.40;;
63114;SDS011;49208;50.874;6.466;2023-06-14T19:15:45;4.55;;;3.00;;
63114;SDS011;49208;50.874;6.466;2023-06-14T19:18:14;4.93;;;2.97;;
63114;SDS011;49208;50.874;6.466;2023-06-14T19:20:39;5.43;;;2.72;;
63114;SDS011;49208;50.874;6.466;2023-06-14T19:23:05;4.70;;;2.92;;
63114;SDS011;49208;50.874;6.466;2023-06-14T19:25:30;4.53;;;2.78;;
63114;SDS011;49208;50.874;6.466;2023-06-14T19:27:55;6.35;;;2.80;;
63114;SDS011;49208;50.874;6.466;2023-06-14T19:30:21;4.22;;;2.63;;
63114;SDS011;49208;50.874;6.466;2023-06-14T19:32:46;5.35;;;2.65;;
63114;SDS011;49208;50.874;6.466;2023-06-14T19:35:14;5.00;;;2.80;;
63114;SDS011;49208;50.874;6.466;2023-06-14T19:37:40;6.00;;;3.10;;
63114;SDS011;49208;50.874;6.466;2023-06-14T19:40:06;5.05;;;3.03;;
63114;SDS011;49208;50.874;6.466;2023-06-14T19:42:31;4.55;;;3.05;;
63114;SDS011;49208;50.874;6.466;2023-06-14T19:44:57;6.45;;;3.15;;
63114;SDS011;49208;50.874;6.466;2023-06-14T19:47:23;5.28;;;2.78;;
63114;SDS011;49208;50.874;6.466;2023-06-14T19:49:49;4.80;;;3.20;;
63114;SDS011;49208;50.874;6.466;2023-06-14T19:52:15;6.20;;;3.28;;
63114;SDS011;49208;50.874;6.466;2023-06-14T19:54:40;7.22;;;3.00;;
63114;SDS011;49208;50.874;6.466;2023-06-14T19:57:05;6.85;;;2.83;;
63114;SDS011;49208;50.874;6.466;2023-06-14T19:59:31;5.07;;;3.28;;
63114;SDS011;49208;50.874;6.466;2023-06-14T20:01:57;7.07;;;3.28;;
63114;SDS011;49208;50.874;6.466;2023-06-14T20:04:23;3.95;;;2.85;;
63114;SDS011;49208;50.874;6.466;2023-06-14T20:06:48;4.93;;;3.20;;
63114;SDS011;49208;50.874;6.466;2023-06-14T20:09:20;5.30;;;3.00;;
63114;SDS011;49208;50.874;6.466;2023-06-14T20:11:45;5.13;;;3.15;;
63114;SDS011;49208;50.874;6.466;2023-06-14T20:14:10;4.80;;;3.30;;
63114;SDS011;49208;50.874;6.466;2023-06-14T20:16:36;5.05;;;3.50;;
63114;SDS011;49208;50.874;6.466;2023-06-14T20:19:01;4.80;;;3.30;;
63114;SDS011;49208;50.874;6.466;2023-06-14T20:21:27;5.30;;;3.35;;
63114;SDS011;49208;50.874;6.466;2023-06-14T20:23:52;4.72;;;3.00;;
63114;SDS011;49208;50.874;6.466;2023-06-14T20:26:18;5.50;;;2.83;;
63114;SDS011;49208;50.874;6.466;2023-06-14T20:28:43;5.88;;;3.33;;
63114;SDS011;49208;50.874;6.466;2023-06-14T20:31:09;5.85;;;3.20;;
63114;SDS011;49208;50.874;6.466;2023-06-14T20:33:35;6.15;;;3.17;;
63114;SDS011;49208;50.874;6.466;2023-06-14T20:36:01;5.60;;;3.13;;
63114;SDS011;49208;50.874;6.466;2023-06-14T20:38:27;4.45;;;3.00;;
63114;SDS011;49208;50.874;6.466;2023-06-14T20:40:52;4.88;;;3.33;;
63114;SDS011;49208;50.874;6.466;2023-06-14T20:43:21;4.32;;;3.13;;
63114;SDS011;49208;50.874;6.466;2023-06-14T20:45:47;5.75;;;3.67;;
63114;SDS011;49208;50.874;6.466;2023-06-14T20:48:14;4.93;;;3.25;;
63114;SDS011;49208;50.874;6.466;2023-06-14T20:50:39;7.40;;;3.05;;
63114;SDS011;49208;50.874;6.466;2023-06-14T20:53:04;4.97;;;3.30;;
63114;SDS011;49208;50.874;6.466;2023-06-14T20:55:30;6.00;;;3.30;;
63114;SDS011;49208;50.874;6.466;2023-06-14T20:57:57;5.78;;;3.47;;
63114;SDS011;49208;50.874;6.466;2023-06-14T21:00:24;5.28;;;3.28;;
63114;SDS011;49208;50.874;6.466;2023-06-14T21:02:49;7.68;;;3.42;;
63114;SDS011;49208;50.874;6.466;2023-06-14T21:05:14;4.28;;;2.83;;
63114;SDS011;49208;50.874;6.466;2023-06-14T21:07:40;5.95;;;3.13;;
63114;SDS011;49208;50.874;6.466;2023-06-14T21:10:05;7.05;;;3.40;;
63114;SDS011;49208;50.874;6.466;2023-06-14T21:12:31;4.57;;;3.20;;
63114;SDS011;49208;50.874;6.466;2023-06-14T21:14:56;6.22;;;3.45;;